createdAt,value
2019-03-12T00:00:33.867Z,2.42
2019-03-12T00:03:09.727Z,2.42
2019-03-12T00:05:45.585Z,2.37
2019-03-12T00:08:21.540Z,2.43
2019-03-12T00:10:57.394Z,2.46
2019-03-12T00:13:34.368Z,2.42
2019-03-12T00:16:10.224Z,2.36
2019-03-12T00:18:46.184Z,2.30
2019-03-12T00:21:22.035Z,2.37
2019-03-12T00:23:58.290Z,2.35
2019-03-12T00:26:34.142Z,2.37
2019-03-12T00:29:10.010Z,2.36
2019-03-12T00:31:45.850Z,2.35
2019-03-12T00:34:21.706Z,2.36
2019-03-12T00:36:57.574Z,2.28
2019-03-12T00:39:33.430Z,2.33
2019-03-12T00:42:09.272Z,2.34
2019-03-12T00:44:45.533Z,2.30
2019-03-12T00:47:21.383Z,2.39
2019-03-12T00:49:57.249Z,2.38
2019-03-12T00:52:33.010Z,2.33
2019-03-12T00:55:09.821Z,2.37
2019-03-12T00:57:45.618Z,2.37
2019-03-12T01:00:22.607Z,2.41
2019-03-12T01:02:58.457Z,2.35
2019-03-12T01:05:34.311Z,2.39
2019-03-12T01:08:10.176Z,2.37
2019-03-12T01:10:46.030Z,2.39
2019-03-12T01:13:22.697Z,2.36
2019-03-12T01:15:58.439Z,2.37
2019-03-12T01:18:34.303Z,2.38
2019-03-12T01:21:10.146Z,2.36
2019-03-12T01:24:07.616Z,2.34
2019-03-12T01:27:04.151Z,2.36
2019-03-12T01:29:40.534Z,2.29
2019-03-12T01:32:16.481Z,2.31
2019-03-12T01:34:52.337Z,2.33
2019-03-12T01:37:28.120Z,2.38
2019-03-12T01:40:04.778Z,2.42
2019-03-12T01:42:40.617Z,2.42
2019-03-12T01:45:16.573Z,2.38
2019-03-12T01:47:52.323Z,2.36
2019-03-12T01:50:28.169Z,2.36
2019-03-12T01:53:04.019Z,2.35
2019-03-12T01:55:39.770Z,2.33
2019-03-12T01:58:15.633Z,2.34
2019-03-12T02:00:52.503Z,2.29
2019-03-12T02:03:28.359Z,2.29
2019-03-12T02:06:04.214Z,2.24
2019-03-12T02:08:40.180Z,2.25
2019-03-12T02:11:16.230Z,2.23
2019-03-12T02:13:52.092Z,2.23
2019-03-12T02:16:27.938Z,2.19
2019-03-12T02:19:03.799Z,2.23
2019-03-12T02:21:39.642Z,2.21
2019-03-12T02:24:15.508Z,2.27
2019-03-12T02:29:41.654Z,2.23
2019-03-12T02:32:17.511Z,2.25
2019-03-12T02:34:53.375Z,2.29
2019-03-12T02:37:29.205Z,2.31
2019-03-12T02:40:08.643Z,2.30
2019-03-12T02:42:44.571Z,2.19
2019-03-12T02:45:20.556Z,2.28
2019-03-12T02:47:56.514Z,2.30
2019-03-12T02:50:32.267Z,2.31
2019-03-12T02:53:08.220Z,2.26
2019-03-12T02:55:44.072Z,2.25
2019-03-12T02:58:19.931Z,2.33
2019-03-12T03:00:55.715Z,2.28
2019-03-12T03:03:31.531Z,2.30
2019-03-12T03:06:08.923Z,2.29
2019-03-12T03:08:44.779Z,2.36
2019-03-12T03:11:20.834Z,2.30
2019-03-12T03:13:56.909Z,2.33
2019-03-12T03:16:32.761Z,2.40
2019-03-12T03:19:08.608Z,2.40
2019-03-12T03:21:44.464Z,2.31
2019-03-12T03:24:20.422Z,2.29
2019-03-12T03:26:56.273Z,2.28
2019-03-12T03:29:32.135Z,2.29
2019-03-12T03:32:07.989Z,2.41
2019-03-12T03:34:43.837Z,2.43
2019-03-12T03:37:19.695Z,2.41
2019-03-12T03:39:55.547Z,2.33
2019-03-12T03:42:31.402Z,2.37
2019-03-12T03:45:09.306Z,2.35
2019-03-12T03:47:45.095Z,2.29
2019-03-12T03:50:20.901Z,2.23
2019-03-12T03:52:56.753Z,2.11
2019-03-12T03:55:32.609Z,2.13
2019-03-12T03:58:08.468Z,2.09
2019-03-12T04:00:44.316Z,2.01
2019-03-12T04:03:20.182Z,1.98
2019-03-12T04:05:57.151Z,1.89
2019-03-12T04:08:33.024Z,1.86
2019-03-12T04:11:08.892Z,1.81
2019-03-12T04:13:44.666Z,1.80
2019-03-12T04:16:20.463Z,1.77
2019-03-12T04:18:56.320Z,1.76
2019-03-12T04:21:32.179Z,1.74
2019-03-12T04:24:08.038Z,1.77
2019-03-12T04:26:43.777Z,1.79
2019-03-12T04:29:19.729Z,1.82
2019-03-12T04:31:55.613Z,1.84
2019-03-12T04:34:31.446Z,1.92
2019-03-12T04:37:07.301Z,2.04
2019-03-12T04:39:43.264Z,2.11
2019-03-12T04:42:19.118Z,2.14
2019-03-12T04:44:54.962Z,2.21
2019-03-12T04:47:30.812Z,2.28
2019-03-12T04:50:08.383Z,2.27
2019-03-12T04:52:44.387Z,2.36
2019-03-12T04:55:20.111Z,2.31
2019-03-12T04:57:55.976Z,2.38
2019-03-12T05:00:31.825Z,2.34
2019-03-12T05:03:07.570Z,2.36
2019-03-12T05:05:43.435Z,2.35
2019-03-12T05:08:19.278Z,2.34
2019-03-12T05:10:55.016Z,2.25
2019-03-12T05:13:30.789Z,2.21
2019-03-12T05:16:06.636Z,2.13
2019-03-12T05:18:42.500Z,2.05
2019-03-12T05:21:18.356Z,1.98
2019-03-12T05:23:54.096Z,2.00
2019-03-12T05:26:29.959Z,2.07
2019-03-12T05:29:05.817Z,2.11
2019-03-12T05:31:41.767Z,2.23
2019-03-12T05:34:17.509Z,2.29
2019-03-12T05:36:53.375Z,2.37
2019-03-12T05:39:29.209Z,2.41
2019-03-12T05:42:04.947Z,2.46
2019-03-12T05:44:40.749Z,2.46
2019-03-12T05:47:16.476Z,2.45
2019-03-12T05:49:52.303Z,2.42
2019-03-12T05:52:28.191Z,2.36
2019-03-12T05:55:04.564Z,2.37
2019-03-12T05:57:40.343Z,2.40
2019-03-12T06:00:21.390Z,2.38
2019-03-12T06:02:57.550Z,2.43
2019-03-12T06:05:33.512Z,2.36
2019-03-12T06:08:30.145Z,2.35
2019-03-12T06:11:06.303Z,2.33
2019-03-12T06:13:42.168Z,2.36
2019-03-12T06:16:18.012Z,2.29
2019-03-12T06:18:54.111Z,2.23
2019-03-12T06:21:30.874Z,2.21
2019-03-12T06:24:06.665Z,2.18
2019-03-12T06:26:42.412Z,2.16
2019-03-12T06:29:18.205Z,2.15
2019-03-12T06:31:55.538Z,2.21
2019-03-12T06:34:32.865Z,2.12
2019-03-12T06:37:10.188Z,2.17
2019-03-12T06:39:56.270Z,2.18
2019-03-12T06:42:36.421Z,2.24
2019-03-12T06:45:28.694Z,2.40
2019-03-12T06:48:24.186Z,2.48
2019-03-12T06:51:17.938Z,2.61
2019-03-12T06:53:58.193Z,2.64
2019-03-12T06:56:42.040Z,2.78
2019-03-12T06:59:22.195Z,2.80
2019-03-12T07:02:02.348Z,2.74
2019-03-12T07:04:56.132Z,2.73
2019-03-12T07:07:48.565Z,2.80
2019-03-12T07:10:38.149Z,2.83
2019-03-12T07:13:15.538Z,2.86
2019-03-12T07:16:05.220Z,2.96
2019-03-12T07:18:51.504Z,2.93
2019-03-12T07:21:46.106Z,2.94
2019-03-12T07:24:23.502Z,2.97
2019-03-12T07:27:13.390Z,3.04
2019-03-12T07:30:06.944Z,3.06
2019-03-12T07:32:50.304Z,3.09
2019-03-12T07:35:33.494Z,3.10
2019-03-12T07:38:20.731Z,3.18
2019-03-12T07:40:58.226Z,3.33
2019-03-12T07:43:50.656Z,3.45
2019-03-12T07:46:37.379Z,3.38
2019-03-12T07:49:31.242Z,3.49
2019-03-12T07:52:08.974Z,3.58
2019-03-12T07:54:46.535Z,3.56
2019-03-12T07:57:23.928Z,3.45
2019-03-12T08:00:04.386Z,3.52
2019-03-12T08:02:43.522Z,3.54
2019-03-12T08:05:28.488Z,3.73
2019-03-12T08:08:16.107Z,3.78
2019-03-12T08:10:56.279Z,3.77
2019-03-12T08:13:46.160Z,3.74
2019-03-12T08:16:32.554Z,3.80
2019-03-12T08:19:10.146Z,3.91
2019-03-12T08:21:49.761Z,3.98
2019-03-12T08:24:26.978Z,4.01
2019-03-12T08:27:10.195Z,4.05
2019-03-12T08:29:53.842Z,4.14
2019-03-12T08:32:37.075Z,4.18
2019-03-12T08:35:14.451Z,4.23
2019-03-12T08:38:04.010Z,4.24
2019-03-12T08:40:52.379Z,4.24
2019-03-12T08:43:23.414Z,4.18
2019-03-12T08:46:18.287Z,4.30
2019-03-12T08:48:58.728Z,4.29
2019-03-12T08:51:42.108Z,4.29
2019-03-12T08:54:21.487Z,4.22
2019-03-12T08:56:58.640Z,3.94
2019-03-12T08:59:39.089Z,4.09
2019-03-12T09:02:28.781Z,4.24
2019-03-12T09:05:07.526Z,4.36
2019-03-12T09:07:47.654Z,4.38
2019-03-12T09:10:28.010Z,4.49
2019-03-12T09:13:11.555Z,4.63
2019-03-12T09:15:51.796Z,4.68
2019-03-12T09:18:31.964Z,4.59
2019-03-12T09:21:09.317Z,4.61
2019-03-12T09:23:49.820Z,4.77
2019-03-12T09:26:39.174Z,4.98
2019-03-12T09:29:16.561Z,5.27
2019-03-12T09:31:59.844Z,5.27
2019-03-12T09:34:47.536Z,5.20
2019-03-12T09:37:36.380Z,5.29
2019-03-12T09:40:19.525Z,5.21
2019-03-12T09:42:59.980Z,5.33
2019-03-12T09:45:52.831Z,5.41
2019-03-12T09:48:33.657Z,5.36
2019-03-12T09:51:18.972Z,5.46
2019-03-12T09:54:03.016Z,5.47
2019-03-12T09:56:49.527Z,5.27
2019-03-12T09:59:45.146Z,5.31
2019-03-12T10:02:38.713Z,5.37
2019-03-12T10:05:19.881Z,5.27
2019-03-12T10:08:00.238Z,5.31
2019-03-12T10:10:40.610Z,5.33
2019-03-12T10:13:17.995Z,5.36
2019-03-12T10:15:58.865Z,5.58
2019-03-12T10:18:36.464Z,5.78
2019-03-12T10:21:13.850Z,5.86
2019-03-12T10:23:52.479Z,5.81
2019-03-12T10:26:48.607Z,5.75
2019-03-12T10:29:29.060Z,5.70
2019-03-12T10:32:07.589Z,5.79
2019-03-12T10:34:47.941Z,6.08
2019-03-12T10:37:28.511Z,6.25
2019-03-12T10:40:12.854Z,6.28
2019-03-12T10:43:07.339Z,6.28
2019-03-12T10:45:45.861Z,6.41
2019-03-12T10:48:22.955Z,6.37
2019-03-12T10:50:58.799Z,6.32
2019-03-12T10:53:36.085Z,6.27
2019-03-12T10:56:11.938Z,6.38
2019-03-12T10:58:47.794Z,6.51
2019-03-12T11:01:23.653Z,6.51
2019-03-12T11:03:59.506Z,6.43
2019-03-12T11:06:35.256Z,6.46
2019-03-12T11:09:11.254Z,6.48
2019-03-12T11:11:47.593Z,6.47
2019-03-12T11:14:23.439Z,6.70
2019-03-12T11:16:59.494Z,6.79
2019-03-12T11:19:35.336Z,6.91
2019-03-12T11:22:11.197Z,7.12
2019-03-12T11:24:47.158Z,7.31
2019-03-12T11:27:23.001Z,7.45
2019-03-12T11:29:58.865Z,7.42
2019-03-12T11:32:34.714Z,7.30
2019-03-12T11:35:10.874Z,7.10
2019-03-12T11:37:46.844Z,6.98
2019-03-12T11:40:25.451Z,6.84
2019-03-12T11:43:01.626Z,6.84
2019-03-12T11:45:39.156Z,6.99
2019-03-12T11:48:15.308Z,7.10
2019-03-12T11:50:51.222Z,7.08
2019-03-12T11:53:27.075Z,6.96
2019-03-12T11:56:03.043Z,6.82
2019-03-12T11:58:38.997Z,6.77
2019-03-12T12:01:15.067Z,6.67
2019-03-12T12:03:50.914Z,6.58
2019-03-12T12:06:26.755Z,6.56
2019-03-12T12:09:03.013Z,6.57
2019-03-12T12:11:40.417Z,6.70
2019-03-12T12:14:16.274Z,6.90
2019-03-12T12:16:52.119Z,6.97
2019-03-12T12:19:29.033Z,6.97
2019-03-12T12:22:04.963Z,6.92
2019-03-12T12:24:41.015Z,6.89
2019-03-12T12:27:16.869Z,6.99
2019-03-12T12:29:52.827Z,7.05
2019-03-12T12:32:28.683Z,7.16
2019-03-12T12:35:07.197Z,7.17
2019-03-12T12:37:43.864Z,7.44
2019-03-12T12:40:21.762Z,7.62
2019-03-12T12:42:57.510Z,7.71
2019-03-12T12:45:38.895Z,7.85
2019-03-12T12:48:14.768Z,7.85
2019-03-12T12:51:02.371Z,7.87
2019-03-12T12:53:28.406Z,7.83
2019-03-12T12:56:05.258Z,7.73
2019-03-12T12:58:41.134Z,7.74
2019-03-12T13:01:16.990Z,7.73
2019-03-12T13:03:52.855Z,7.86
2019-03-12T13:06:28.701Z,7.96
2019-03-12T13:09:05.238Z,7.94
2019-03-12T13:11:42.670Z,7.85
2019-03-12T13:14:18.624Z,7.69
2019-03-12T13:16:54.478Z,7.66
2019-03-12T13:19:30.352Z,7.59
2019-03-12T13:22:06.086Z,7.60
2019-03-12T13:24:42.200Z,7.69
2019-03-12T13:27:17.994Z,7.77
2019-03-12T13:29:53.944Z,7.82
2019-03-12T13:32:47.993Z,7.88
2019-03-12T13:35:31.664Z,7.91
2019-03-12T13:38:07.518Z,7.87
2019-03-12T13:40:43.333Z,7.90
2019-03-12T13:43:19.117Z,8.03
2019-03-12T13:45:54.869Z,8.08
2019-03-12T13:48:31.060Z,8.01
2019-03-12T13:51:07.263Z,7.92
2019-03-12T13:53:43.257Z,7.80
2019-03-12T13:56:19.076Z,7.68
2019-03-12T13:58:54.914Z,7.71
2019-03-12T14:01:30.715Z,7.61
2019-03-12T14:04:10.784Z,7.59
2019-03-12T14:06:44.098Z,7.61
2019-03-12T14:09:19.901Z,7.59
2019-03-12T14:11:59.081Z,7.57
2019-03-12T14:14:33.884Z,7.55
2019-03-12T14:17:09.730Z,7.50
2019-03-12T14:19:45.602Z,7.55
2019-03-12T14:22:21.427Z,7.54
2019-03-12T14:24:57.882Z,7.55
2019-03-12T14:27:33.678Z,7.58
2019-03-12T14:30:10.536Z,7.60
2019-03-12T14:32:46.578Z,7.65
2019-03-12T14:35:22.335Z,7.64
2019-03-12T14:37:58.172Z,7.68
2019-03-12T14:40:34.081Z,7.93
2019-03-12T14:43:09.925Z,8.33
2019-03-12T14:45:50.703Z,8.62
2019-03-12T14:48:43.942Z,8.66
2019-03-12T14:51:34.589Z,8.61
2019-03-12T14:54:12.835Z,8.49
2019-03-12T14:56:48.557Z,8.44
2019-03-12T14:59:24.311Z,8.41
2019-03-12T15:02:00.115Z,8.34
2019-03-12T15:04:37.126Z,8.31
2019-03-12T15:07:12.908Z,8.32
2019-03-12T15:09:48.704Z,8.32
2019-03-12T15:12:24.470Z,8.23
2019-03-12T15:15:01.615Z,8.14
2019-03-12T15:17:38.265Z,8.08
2019-03-12T15:20:15.126Z,7.95
2019-03-12T15:22:50.841Z,7.88
2019-03-12T15:25:26.606Z,7.85
2019-03-12T15:28:03.467Z,7.82
2019-03-12T15:30:39.226Z,7.82
2019-03-12T15:33:16.086Z,7.77
2019-03-12T15:35:51.946Z,7.77
2019-03-12T15:38:28.048Z,7.77
2019-03-12T15:41:03.865Z,7.77
2019-03-12T15:43:39.666Z,7.77
2019-03-12T15:46:15.411Z,7.76
2019-03-12T15:48:51.517Z,7.69
2019-03-12T15:51:28.715Z,7.61
2019-03-12T15:54:04.567Z,7.55
2019-03-12T15:56:40.413Z,7.49
2019-03-12T15:59:16.275Z,7.45
2019-03-12T16:01:52.012Z,7.45
2019-03-12T16:04:27.870Z,7.41
2019-03-12T16:07:03.687Z,7.34
2019-03-12T16:09:39.474Z,7.35
2019-03-12T16:12:16.874Z,7.29
2019-03-12T16:14:52.739Z,7.23
2019-03-12T16:17:29.794Z,7.17
2019-03-12T16:20:11.807Z,7.09
2019-03-12T16:22:47.524Z,7.03
2019-03-12T16:25:23.308Z,6.93
2019-03-12T16:27:59.169Z,6.84
2019-03-12T16:30:35.009Z,6.75
2019-03-12T16:33:10.876Z,6.67
2019-03-12T16:35:46.730Z,6.52
2019-03-12T16:38:22.585Z,6.41
2019-03-12T16:40:58.429Z,6.25
2019-03-12T16:43:34.296Z,6.11
2019-03-12T16:46:10.138Z,6.02
2019-03-12T16:48:45.993Z,5.92
2019-03-12T16:51:21.806Z,5.82
2019-03-12T16:53:57.811Z,5.67
2019-03-12T16:56:44.723Z,5.56
2019-03-12T16:59:11.758Z,5.48
2019-03-12T17:01:47.570Z,5.38
2019-03-12T17:04:23.379Z,5.31
2019-03-12T17:06:59.223Z,5.25
2019-03-12T17:09:35.070Z,5.17
2019-03-12T17:12:10.941Z,5.12
2019-03-12T17:14:46.690Z,5.08
2019-03-12T17:17:22.536Z,5.04
2019-03-12T17:19:58.496Z,4.97
2019-03-12T17:22:35.823Z,4.94
2019-03-12T17:25:12.360Z,4.92
2019-03-12T17:27:51.281Z,4.86
2019-03-12T17:30:26.014Z,4.85
2019-03-12T17:33:02.893Z,4.79
2019-03-12T17:35:41.094Z,4.75
2019-03-12T17:38:16.949Z,4.67
2019-03-12T17:40:52.918Z,4.61
2019-03-12T17:43:28.866Z,4.57
2019-03-12T17:46:04.711Z,4.55
2019-03-12T17:48:40.577Z,4.49
2019-03-12T17:51:16.414Z,4.42
2019-03-12T17:53:52.282Z,4.36
2019-03-12T17:56:28.747Z,4.31
2019-03-12T17:59:05.526Z,4.27
2019-03-12T18:01:41.379Z,4.19
2019-03-12T18:04:17.123Z,4.10
2019-03-12T18:06:52.988Z,4.08
2019-03-12T18:09:28.835Z,4.03
2019-03-12T18:12:04.693Z,3.98
2019-03-12T18:14:40.549Z,3.94
2019-03-12T18:17:16.493Z,3.93
2019-03-12T18:19:52.248Z,3.88
2019-03-12T18:22:28.136Z,3.85
2019-03-12T18:25:05.042Z,3.84
2019-03-12T18:27:40.836Z,3.81
2019-03-12T18:30:19.454Z,3.75
2019-03-12T18:32:55.319Z,3.73
2019-03-12T18:35:32.179Z,3.69
2019-03-12T18:38:08.048Z,3.65
2019-03-12T18:40:43.898Z,3.62
2019-03-12T18:43:19.848Z,3.63
2019-03-12T18:45:55.699Z,3.61
2019-03-12T18:48:31.567Z,3.56
2019-03-12T18:51:07.416Z,3.54
2019-03-12T18:53:44.498Z,3.55
2019-03-12T18:56:20.358Z,3.54
2019-03-12T18:58:56.202Z,3.50
2019-03-12T19:01:32.066Z,3.48
2019-03-12T19:04:07.919Z,3.43
2019-03-12T19:06:44.378Z,3.40
2019-03-12T19:09:20.236Z,3.34
2019-03-12T19:11:56.043Z,3.33
2019-03-12T19:14:31.769Z,3.31
2019-03-12T19:17:07.589Z,3.34
2019-03-12T19:19:43.442Z,3.30
2019-03-12T19:22:19.304Z,3.27
2019-03-12T19:24:55.146Z,3.23
2019-03-12T19:27:31.511Z,3.21
2019-03-12T19:30:10.456Z,3.20
2019-03-12T19:32:51.012Z,3.20
2019-03-12T19:35:28.412Z,3.20
2019-03-12T19:38:04.624Z,3.19
2019-03-12T19:40:48.802Z,3.23
2019-03-12T19:43:25.901Z,3.21
2019-03-12T19:46:01.743Z,3.21
2019-03-12T19:48:38.726Z,3.21
2019-03-12T19:51:14.524Z,3.25
2019-03-12T19:53:50.340Z,3.25
2019-03-12T19:56:26.188Z,3.21
2019-03-12T19:59:02.034Z,3.19
2019-03-12T20:01:38.515Z,3.17
2019-03-12T20:04:14.254Z,3.14
2019-03-12T20:06:50.127Z,3.13
2019-03-12T20:09:32.016Z,3.12
2019-03-12T20:12:29.243Z,3.15
2019-03-12T20:15:10.661Z,3.13
2019-03-12T20:18:06.104Z,3.11
2019-03-12T20:21:09.046Z,3.13
2019-03-12T20:24:20.957Z,3.13
2019-03-12T20:27:18.114Z,3.11
2019-03-12T20:30:19.557Z,3.10
2019-03-12T20:33:24.593Z,3.10
2019-03-12T20:36:25.505Z,3.10
2019-03-12T20:39:22.141Z,3.07
2019-03-12T20:42:29.132Z,3.08
2019-03-12T20:45:40.602Z,3.09
2019-03-12T20:48:25.312Z,3.08
2019-03-12T20:51:35.586Z,3.07
2019-03-12T20:54:23.621Z,3.04
2019-03-12T20:57:29.989Z,3.04
2019-03-12T21:00:28.048Z,3.00
2019-03-12T21:03:06.871Z,3.01
2019-03-12T21:06:02.024Z,3.00
2019-03-12T21:09:13.942Z,3.02
2019-03-12T21:12:13.536Z,3.00
2019-03-12T21:15:23.701Z,3.03
2019-03-12T21:18:29.583Z,3.00
2019-03-12T21:21:19.475Z,2.99
2019-03-12T21:24:01.515Z,2.98
2019-03-12T21:26:43.167Z,2.93
2019-03-12T21:29:42.457Z,2.90
2019-03-12T21:32:18.850Z,2.88
2019-03-12T21:34:54.602Z,2.87
2019-03-12T21:37:30.561Z,2.86
2019-03-12T21:40:09.383Z,2.88
2019-03-12T21:42:45.251Z,2.94
2019-03-12T21:45:21.296Z,2.94
2019-03-12T21:47:57.165Z,2.97
2019-03-12T21:50:33.008Z,2.96
2019-03-12T21:53:08.770Z,2.96
2019-03-12T21:55:44.538Z,2.99
2019-03-12T21:58:20.846Z,3.01
2019-03-12T22:00:56.635Z,3.02
2019-03-12T22:03:32.490Z,3.04
2019-03-12T22:06:08.333Z,3.04
2019-03-12T22:08:44.191Z,3.06
2019-03-12T22:11:19.967Z,3.12
2019-03-12T22:13:56.101Z,3.15
2019-03-12T22:16:31.886Z,3.21
2019-03-12T22:19:07.823Z,3.30
2019-03-12T22:21:57.703Z,3.32
2019-03-12T22:24:33.555Z,3.35
2019-03-12T22:27:09.410Z,3.40
2019-03-12T22:29:45.472Z,3.43
2019-03-12T22:32:39.248Z,3.45
2019-03-12T22:38:48.559Z,3.53
2019-03-12T22:41:24.351Z,3.58
2019-03-12T22:44:00.198Z,3.60
2019-03-12T22:46:35.906Z,3.61
2019-03-12T22:49:11.806Z,3.56
2019-03-12T22:51:47.670Z,3.52
2019-03-12T22:54:23.512Z,3.51
2019-03-12T22:56:59.259Z,3.49
2019-03-12T22:59:53.345Z,3.49
2019-03-12T23:02:47.528Z,3.45
2019-03-12T23:05:41.616Z,3.39
2019-03-12T23:08:35.401Z,3.34
2019-03-12T23:11:12.886Z,3.31
2019-03-12T23:13:49.257Z,3.31
2019-03-12T23:16:26.626Z,3.29
2019-03-12T23:19:04.445Z,3.27
2019-03-12T23:21:40.356Z,3.23
2019-03-12T23:24:16.559Z,3.24
2019-03-12T23:26:59.474Z,3.25
2019-03-12T23:29:37.574Z,3.27
2019-03-12T23:32:20.629Z,3.28
2019-03-12T23:34:58.295Z,3.31
2019-03-12T23:38:01.668Z,3.35
2019-03-12T23:40:56.236Z,3.37
2019-03-12T23:43:48.840Z,3.41
2019-03-12T23:46:46.765Z,3.43
2019-03-12T23:49:34.123Z,3.41
2019-03-12T23:55:18.205Z,3.40
2019-03-12T23:57:54.060Z,3.40
